sensor_id;sensor_type;location;lat;lon;timestamp;P1;durP1;ratioP1;P2;durP2;ratioP2
66628;SDS011;53532;53.084;6.352;2023-02-11T00:01:23;26.70;;;8.32;;
66628;SDS011;53532;53.084;6.352;2023-02-11T00:03:51;28.63;;;7.97;;
66628;SDS011;53532;53.084;6.352;2023-02-11T00:06:19;26.13;;;8.38;;
66628;SDS011;53532;53.084;6.352;2023-02-11T00:08:47;26.60;;;8.32;;
66628;SDS011;53532;53.084;6.352;2023-02-11T00:11:14;27.25;;;7.75;;
66628;SDS011;53532;53.084;6.352;2023-02-11T00:13:41;25.45;;;8.32;;
66628;SDS011;53532;53.084;6.352;2023-02-11T00:16:08;28.05;;;8.38;;
66628;SDS011;53532;53.084;6.352;2023-02-11T00:18:34;26.02;;;9.30;;
66628;SDS011;53532;53.084;6.352;2023-02-11T00:21:04;29.58;;;9.57;;
66628;SDS011;53532;53.084;6.352;2023-02-11T00:23:30;25.80;;;8.30;;
66628;SDS011;53532;53.084;6.352;2023-02-11T00:25:57;23.27;;;8.05;;
66628;SDS011;53532;53.084;6.352;2023-02-11T00:28:24;26.58;;;8.98;;
66628;SDS011;53532;53.084;6.352;2023-02-11T00:30:52;22.60;;;8.10;;
66628;SDS011;53532;53.084;6.352;2023-02-11T00:33:19;25.33;;;8.82;;
66628;SDS011;53532;53.084;6.352;2023-02-11T00:35:45;28.80;;;8.82;;
66628;SDS011;53532;53.084;6.352;2023-02-11T00:38:11;27.45;;;8.80;;
66628;SDS011;53532;53.084;6.352;2023-02-11T00:40:37;23.90;;;8.68;;
66628;SDS011;53532;53.084;6.352;2023-02-11T00:43:05;24.65;;;8.30;;
66628;SDS011;53532;53.084;6.352;2023-02-11T00:45:31;25.13;;;8.45;;
66628;SDS011;53532;53.084;6.352;2023-02-11T00:47:57;30.65;;;9.43;;
66628;SDS011;53532;53.084;6.352;2023-02-11T00:50:23;24.13;;;8.38;;
66628;SDS011;53532;53.084;6.352;2023-02-11T00:52:49;25.80;;;8.70;;
66628;SDS011;53532;53.084;6.352;2023-02-11T00:55:16;26.58;;;8.68;;
66628;SDS011;53532;53.084;6.352;2023-02-11T00:57:42;28.20;;;8.52;;
66628;SDS011;53532;53.084;6.352;2023-02-11T01:00:11;28.10;;;9.98;;
66628;SDS011;53532;53.084;6.352;2023-02-11T01:02:38;29.45;;;9.60;;
66628;SDS011;53532;53.084;6.352;2023-02-11T01:05:04;26.08;;;9.85;;
66628;SDS011;53532;53.084;6.352;2023-02-11T01:07:31;28.75;;;9.25;;
66628;SDS011;53532;53.084;6.352;2023-02-11T01:09:57;26.35;;;9.38;;
66628;SDS011;53532;53.084;6.352;2023-02-11T01:12:24;25.65;;;9.60;;
66628;SDS011;53532;53.084;6.352;2023-02-11T01:14:50;28.33;;;9.75;;
66628;SDS011;53532;53.084;6.352;2023-02-11T01:17:17;26.98;;;9.25;;
66628;SDS011;53532;53.084;6.352;2023-02-11T01:19:43;27.80;;;9.93;;
66628;SDS011;53532;53.084;6.352;2023-02-11T01:22:10;29.52;;;9.65;;
66628;SDS011;53532;53.084;6.352;2023-02-11T01:24:36;27.65;;;10.15;;
66628;SDS011;53532;53.084;6.352;2023-02-11T01:27:02;30.45;;;9.95;;
66628;SDS011;53532;53.084;6.352;2023-02-11T01:29:28;27.98;;;10.43;;
66628;SDS011;53532;53.084;6.352;2023-02-11T01:31:54;29.85;;;9.95;;
66628;SDS011;53532;53.084;6.352;2023-02-11T01:34:23;25.42;;;10.82;;
66628;SDS011;53532;53.084;6.352;2023-02-11T01:36:49;27.02;;;9.85;;
66628;SDS011;53532;53.084;6.352;2023-02-11T01:39:18;31.25;;;10.70;;
66628;SDS011;53532;53.084;6.352;2023-02-11T01:41:45;33.30;;;10.98;;
66628;SDS011;53532;53.084;6.352;2023-02-11T01:46:59;29.15;;;10.93;;
66628;SDS011;53532;53.084;6.352;2023-02-11T01:49:30;29.58;;;10.82;;
66628;SDS011;53532;53.084;6.352;2023-02-11T01:51:57;30.83;;;11.18;;
66628;SDS011;53532;53.084;6.352;2023-02-11T01:54:27;32.10;;;12.00;;
66628;SDS011;53532;53.084;6.352;2023-02-11T01:57:13;31.42;;;11.02;;
66628;SDS011;53532;53.084;6.352;2023-02-11T01:59:47;32.75;;;11.30;;
66628;SDS011;53532;53.084;6.352;2023-02-11T02:02:18;27.87;;;10.73;;
66628;SDS011;53532;53.084;6.352;2023-02-11T02:04:48;34.38;;;11.60;;
66628;SDS011;53532;53.084;6.352;2023-02-11T02:07:19;27.02;;;11.77;;
66628;SDS011;53532;53.084;6.352;2023-02-11T02:09:48;32.58;;;12.32;;
66628;SDS011;53532;53.084;6.352;2023-02-11T02:12:17;32.22;;;12.35;;
66628;SDS011;53532;53.084;6.352;2023-02-11T02:14:44;34.45;;;11.95;;
66628;SDS011;53532;53.084;6.352;2023-02-11T02:17:10;35.28;;;12.48;;
66628;SDS011;53532;53.084;6.352;2023-02-11T02:22:42;37.22;;;13.30;;
66628;SDS011;53532;53.084;6.352;2023-02-11T02:25:20;32.00;;;13.30;;
66628;SDS011;53532;53.084;6.352;2023-02-11T02:27:54;31.63;;;13.50;;
66628;SDS011;53532;53.084;6.352;2023-02-11T02:35:54;31.75;;;13.73;;
66628;SDS011;53532;53.084;6.352;2023-02-11T02:38:24;33.22;;;13.73;;
66628;SDS011;53532;53.084;6.352;2023-02-11T02:40:53;41.15;;;15.07;;
66628;SDS011;53532;53.084;6.352;2023-02-11T02:43:21;33.67;;;14.25;;
66628;SDS011;53532;53.084;6.352;2023-02-11T02:45:48;36.83;;;15.65;;
66628;SDS011;53532;53.084;6.352;2023-02-11T02:48:24;36.83;;;15.82;;
66628;SDS011;53532;53.084;6.352;2023-02-11T02:50:53;37.40;;;14.70;;
66628;SDS011;53532;53.084;6.352;2023-02-11T02:53:25;34.53;;;15.95;;
66628;SDS011;53532;53.084;6.352;2023-02-11T02:55:58;37.92;;;16.50;;
66628;SDS011;53532;53.084;6.352;2023-02-11T02:58:30;34.65;;;17.25;;
66628;SDS011;53532;53.084;6.352;2023-02-11T03:01:02;34.35;;;16.77;;
66628;SDS011;53532;53.084;6.352;2023-02-11T03:03:34;38.20;;;17.73;;
66628;SDS011;53532;53.084;6.352;2023-02-11T03:06:04;41.25;;;19.00;;
66628;SDS011;53532;53.084;6.352;2023-02-11T03:08:34;42.40;;;19.75;;
66628;SDS011;53532;53.084;6.352;2023-02-11T03:11:02;40.35;;;20.00;;
66628;SDS011;53532;53.084;6.352;2023-02-11T03:13:30;43.95;;;20.48;;
66628;SDS011;53532;53.084;6.352;2023-02-11T03:15:58;46.75;;;21.08;;
66628;SDS011;53532;53.084;6.352;2023-02-11T03:18:27;42.13;;;21.00;;
66628;SDS011;53532;53.084;6.352;2023-02-11T03:20:54;47.03;;;21.92;;
66628;SDS011;53532;53.084;6.352;2023-02-11T03:23:25;44.47;;;21.48;;
66628;SDS011;53532;53.084;6.352;2023-02-11T03:25:54;42.45;;;21.58;;
66628;SDS011;53532;53.084;6.352;2023-02-11T03:28:23;47.28;;;21.63;;
66628;SDS011;53532;53.084;6.352;2023-02-11T03:33:21;43.47;;;21.77;;
66628;SDS011;53532;53.084;6.352;2023-02-11T03:35:49;41.92;;;21.98;;
66628;SDS011;53532;53.084;6.352;2023-02-11T03:38:18;47.00;;;23.10;;
66628;SDS011;53532;53.084;6.352;2023-02-11T03:40:48;43.42;;;22.98;;
66628;SDS011;53532;53.084;6.352;2023-02-11T03:43:16;45.22;;;23.13;;
66628;SDS011;53532;53.084;6.352;2023-02-11T03:45:43;45.10;;;22.83;;
66628;SDS011;53532;53.084;6.352;2023-02-11T03:48:11;46.88;;;23.60;;
66628;SDS011;53532;53.084;6.352;2023-02-11T03:50:39;47.95;;;23.13;;
66628;SDS011;53532;53.084;6.352;2023-02-11T03:53:06;45.00;;;23.33;;
66628;SDS011;53532;53.084;6.352;2023-02-11T03:55:33;47.97;;;22.98;;
66628;SDS011;53532;53.084;6.352;2023-02-11T03:58:03;45.72;;;22.77;;
66628;SDS011;53532;53.084;6.352;2023-02-11T04:00:29;46.95;;;22.90;;
66628;SDS011;53532;53.084;6.352;2023-02-11T04:02:56;45.05;;;23.30;;
66628;SDS011;53532;53.084;6.352;2023-02-11T04:05:22;49.22;;;23.80;;
66628;SDS011;53532;53.084;6.352;2023-02-11T04:07:48;48.03;;;23.70;;
66628;SDS011;53532;53.084;6.352;2023-02-11T04:10:14;43.47;;;23.13;;
66628;SDS011;53532;53.084;6.352;2023-02-11T04:12:40;44.70;;;23.13;;
66628;SDS011;53532;53.084;6.352;2023-02-11T04:15:08;43.95;;;22.63;;
66628;SDS011;53532;53.084;6.352;2023-02-11T04:17:34;43.35;;;23.27;;
66628;SDS011;53532;53.084;6.352;2023-02-11T04:20:01;44.17;;;21.67;;
66628;SDS011;53532;53.084;6.352;2023-02-11T04:22:27;48.22;;;23.50;;
66628;SDS011;53532;53.084;6.352;2023-02-11T04:24:53;45.45;;;23.15;;
66628;SDS011;53532;53.084;6.352;2023-02-11T04:27:19;45.30;;;22.85;;
66628;SDS011;53532;53.084;6.352;2023-02-11T04:29:45;46.35;;;23.67;;
66628;SDS011;53532;53.084;6.352;2023-02-11T04:32:13;45.05;;;22.40;;
66628;SDS011;53532;53.084;6.352;2023-02-11T04:34:39;43.25;;;21.20;;
66628;SDS011;53532;53.084;6.352;2023-02-11T04:37:05;43.85;;;22.30;;
66628;SDS011;53532;53.084;6.352;2023-02-11T04:39:32;43.60;;;22.27;;
66628;SDS011;53532;53.084;6.352;2023-02-11T04:41:58;46.08;;;23.23;;
66628;SDS011;53532;53.084;6.352;2023-02-11T04:44:24;46.92;;;22.92;;
66628;SDS011;53532;53.084;6.352;2023-02-11T04:46:51;48.78;;;22.92;;
66628;SDS011;53532;53.084;6.352;2023-02-11T04:49:18;44.67;;;23.35;;
66628;SDS011;53532;53.084;6.352;2023-02-11T04:51:44;45.72;;;23.05;;
66628;SDS011;53532;53.084;6.352;2023-02-11T04:54:11;45.40;;;22.67;;
66628;SDS011;53532;53.084;6.352;2023-02-11T04:56:37;47.17;;;23.50;;
66628;SDS011;53532;53.084;6.352;2023-02-11T04:59:03;45.83;;;22.75;;
66628;SDS011;53532;53.084;6.352;2023-02-11T05:01:30;44.30;;;22.48;;
66628;SDS011;53532;53.084;6.352;2023-02-11T05:03:56;46.38;;;23.45;;
66628;SDS011;53532;53.084;6.352;2023-02-11T05:06:23;43.50;;;22.88;;
66628;SDS011;53532;53.084;6.352;2023-02-11T05:08:51;44.85;;;23.42;;
66628;SDS011;53532;53.084;6.352;2023-02-11T05:11:18;49.30;;;23.08;;
66628;SDS011;53532;53.084;6.352;2023-02-11T05:13:44;45.47;;;22.73;;
66628;SDS011;53532;53.084;6.352;2023-02-11T05:16:10;44.08;;;23.27;;
66628;SDS011;53532;53.084;6.352;2023-02-11T05:18:37;44.92;;;22.90;;
66628;SDS011;53532;53.084;6.352;2023-02-11T05:21:04;49.22;;;23.38;;
66628;SDS011;53532;53.084;6.352;2023-02-11T05:23:35;44.40;;;23.05;;
66628;SDS011;53532;53.084;6.352;2023-02-11T05:26:05;47.80;;;23.65;;
66628;SDS011;53532;53.084;6.352;2023-02-11T05:28:33;48.67;;;24.50;;
66628;SDS011;53532;53.084;6.352;2023-02-11T05:31:00;49.30;;;24.27;;
66628;SDS011;53532;53.084;6.352;2023-02-11T05:33:27;46.25;;;22.95;;
66628;SDS011;53532;53.084;6.352;2023-02-11T05:35:56;46.92;;;23.35;;
66628;SDS011;53532;53.084;6.352;2023-02-11T05:38:23;48.88;;;23.88;;
66628;SDS011;53532;53.084;6.352;2023-02-11T05:40:50;47.55;;;24.15;;
66628;SDS011;53532;53.084;6.352;2023-02-11T05:43:16;46.95;;;22.63;;
66628;SDS011;53532;53.084;6.352;2023-02-11T05:45:42;46.85;;;24.15;;
66628;SDS011;53532;53.084;6.352;2023-02-11T05:48:08;53.75;;;24.98;;
66628;SDS011;53532;53.084;6.352;2023-02-11T05:50:35;49.40;;;24.35;;
66628;SDS011;53532;53.084;6.352;2023-02-11T05:53:01;51.85;;;23.50;;
66628;SDS011;53532;53.084;6.352;2023-02-11T05:55:27;49.05;;;24.98;;
66628;SDS011;53532;53.084;6.352;2023-02-11T05:57:54;42.22;;;23.63;;
66628;SDS011;53532;53.084;6.352;2023-02-11T06:00:21;48.13;;;22.65;;
66628;SDS011;53532;53.084;6.352;2023-02-11T06:02:47;48.88;;;23.30;;
66628;SDS011;53532;53.084;6.352;2023-02-11T06:05:13;46.60;;;23.77;;
66628;SDS011;53532;53.084;6.352;2023-02-11T06:07:39;47.20;;;22.95;;
66628;SDS011;53532;53.084;6.352;2023-02-11T06:10:06;44.95;;;22.77;;
66628;SDS011;53532;53.084;6.352;2023-02-11T06:12:32;51.65;;;24.42;;
66628;SDS011;53532;53.084;6.352;2023-02-11T06:15:00;46.05;;;24.27;;
66628;SDS011;53532;53.084;6.352;2023-02-11T06:17:26;47.25;;;23.95;;
66628;SDS011;53532;53.084;6.352;2023-02-11T06:19:57;44.85;;;23.90;;
66628;SDS011;53532;53.084;6.352;2023-02-11T06:22:24;42.65;;;22.77;;
66628;SDS011;53532;53.084;6.352;2023-02-11T06:24:50;44.17;;;23.52;;
66628;SDS011;53532;53.084;6.352;2023-02-11T06:27:16;44.58;;;23.50;;
66628;SDS011;53532;53.084;6.352;2023-02-11T06:29:43;41.90;;;22.40;;
66628;SDS011;53532;53.084;6.352;2023-02-11T06:32:10;46.40;;;23.58;;
66628;SDS011;53532;53.084;6.352;2023-02-11T06:34:37;52.00;;;24.17;;
66628;SDS011;53532;53.084;6.352;2023-02-11T06:37:03;47.25;;;23.70;;
66628;SDS011;53532;53.084;6.352;2023-02-11T06:39:29;50.88;;;23.60;;
66628;SDS011;53532;53.084;6.352;2023-02-11T06:41:55;43.75;;;22.77;;
66628;SDS011;53532;53.084;6.352;2023-02-11T06:44:21;43.42;;;23.77;;
66628;SDS011;53532;53.084;6.352;2023-02-11T06:46:48;47.33;;;24.48;;
66628;SDS011;53532;53.084;6.352;2023-02-11T06:49:15;46.40;;;23.42;;
66628;SDS011;53532;53.084;6.352;2023-02-11T06:51:41;50.30;;;24.25;;
66628;SDS011;53532;53.084;6.352;2023-02-11T06:54:08;53.08;;;24.83;;
66628;SDS011;53532;53.084;6.352;2023-02-11T06:56:34;51.00;;;25.08;;
66628;SDS011;53532;53.084;6.352;2023-02-11T06:59:00;47.63;;;25.00;;
66628;SDS011;53532;53.084;6.352;2023-02-11T07:01:27;57.40;;;27.08;;
66628;SDS011;53532;53.084;6.352;2023-02-11T07:03:53;54.78;;;26.40;;
66628;SDS011;53532;53.084;6.352;2023-02-11T07:06:22;59.95;;;26.80;;
66628;SDS011;53532;53.084;6.352;2023-02-11T07:08:49;55.83;;;26.15;;
66628;SDS011;53532;53.084;6.352;2023-02-11T07:11:17;56.38;;;26.45;;
66628;SDS011;53532;53.084;6.352;2023-02-11T07:13:43;59.40;;;27.55;;
66628;SDS011;53532;53.084;6.352;2023-02-11T07:16:10;62.30;;;28.10;;
66628;SDS011;53532;53.084;6.352;2023-02-11T07:18:36;53.90;;;26.77;;
66628;SDS011;53532;53.084;6.352;2023-02-11T07:21:03;63.53;;;29.52;;
66628;SDS011;53532;53.084;6.352;2023-02-11T07:23:31;59.10;;;28.00;;
66628;SDS011;53532;53.084;6.352;2023-02-11T07:25:57;59.50;;;27.92;;
66628;SDS011;53532;53.084;6.352;2023-02-11T07:28:26;60.63;;;28.27;;
66628;SDS011;53532;53.084;6.352;2023-02-11T07:30:53;57.03;;;28.67;;
66628;SDS011;53532;53.084;6.352;2023-02-11T07:33:19;57.13;;;27.77;;
66628;SDS011;53532;53.084;6.352;2023-02-11T07:35:45;54.72;;;27.15;;
66628;SDS011;53532;53.084;6.352;2023-02-11T07:38:13;59.88;;;28.02;;
66628;SDS011;53532;53.084;6.352;2023-02-11T07:40:41;58.72;;;28.15;;
66628;SDS011;53532;53.084;6.352;2023-02-11T07:43:07;63.63;;;28.33;;
66628;SDS011;53532;53.084;6.352;2023-02-11T07:45:33;57.25;;;27.63;;
66628;SDS011;53532;53.084;6.352;2023-02-11T07:48:03;53.63;;;27.45;;
66628;SDS011;53532;53.084;6.352;2023-02-11T07:50:29;61.42;;;28.20;;
66628;SDS011;53532;53.084;6.352;2023-02-11T07:52:55;62.85;;;28.52;;
66628;SDS011;53532;53.084;6.352;2023-02-11T07:55:21;55.13;;;27.13;;
66628;SDS011;53532;53.084;6.352;2023-02-11T07:57:49;56.63;;;27.20;;
66628;SDS011;53532;53.084;6.352;2023-02-11T08:00:15;57.40;;;28.23;;
66628;SDS011;53532;53.084;6.352;2023-02-11T08:02:41;64.80;;;28.70;;
66628;SDS011;53532;53.084;6.352;2023-02-11T08:05:08;57.95;;;27.60;;
66628;SDS011;53532;53.084;6.352;2023-02-11T08:07:34;54.53;;;27.23;;
66628;SDS011;53532;53.084;6.352;2023-02-11T08:10:00;56.53;;;27.48;;
66628;SDS011;53532;53.084;6.352;2023-02-11T08:12:26;54.40;;;27.90;;
66628;SDS011;53532;53.084;6.352;2023-02-11T08:14:54;53.40;;;26.95;;
66628;SDS011;53532;53.084;6.352;2023-02-11T08:17:20;57.72;;;27.25;;
66628;SDS011;53532;53.084;6.352;2023-02-11T08:19:46;54.25;;;27.23;;
66628;SDS011;53532;53.084;6.352;2023-02-11T08:22:12;51.58;;;26.20;;
66628;SDS011;53532;53.084;6.352;2023-02-11T08:24:38;49.65;;;25.95;;
66628;SDS011;53532;53.084;6.352;2023-02-11T08:27:05;48.78;;;25.65;;
66628;SDS011;53532;53.084;6.352;2023-02-11T08:29:31;50.20;;;25.45;;
66628;SDS011;53532;53.084;6.352;2023-02-11T08:31:58;48.33;;;23.98;;
66628;SDS011;53532;53.084;6.352;2023-02-11T08:34:24;53.05;;;25.67;;
66628;SDS011;53532;53.084;6.352;2023-02-11T08:36:51;48.63;;;24.55;;
66628;SDS011;53532;53.084;6.352;2023-02-11T08:39:18;52.70;;;25.05;;
66628;SDS011;53532;53.084;6.352;2023-02-11T08:41:45;46.80;;;24.67;;
66628;SDS011;53532;53.084;6.352;2023-02-11T08:44:12;45.45;;;24.17;;
66628;SDS011;53532;53.084;6.352;2023-02-11T08:46:38;49.45;;;24.85;;
66628;SDS011;53532;53.084;6.352;2023-02-11T08:49:06;46.38;;;24.00;;
66628;SDS011;53532;53.084;6.352;2023-02-11T08:51:32;43.97;;;23.25;;
66628;SDS011;53532;53.084;6.352;2023-02-11T08:53:59;44.92;;;24.08;;
66628;SDS011;53532;53.084;6.352;2023-02-11T08:56:25;42.03;;;21.73;;
66628;SDS011;53532;53.084;6.352;2023-02-11T08:58:51;42.92;;;23.00;;
66628;SDS011;53532;53.084;6.352;2023-02-11T09:01:19;43.60;;;23.50;;
66628;SDS011;53532;53.084;6.352;2023-02-11T09:03:46;42.97;;;21.20;;
66628;SDS011;53532;53.084;6.352;2023-02-11T09:06:13;39.00;;;21.27;;
66628;SDS011;53532;53.084;6.352;2023-02-11T09:08:42;38.78;;;21.63;;
66628;SDS011;53532;53.084;6.352;2023-02-11T09:11:09;39.08;;;20.85;;
66628;SDS011;53532;53.084;6.352;2023-02-11T09:13:36;36.35;;;20.45;;
66628;SDS011;53532;53.084;6.352;2023-02-11T09:16:03;37.65;;;19.83;;
66628;SDS011;53532;53.084;6.352;2023-02-11T09:18:30;36.95;;;19.35;;
66628;SDS011;53532;53.084;6.352;2023-02-11T09:21:00;33.45;;;19.52;;
66628;SDS011;53532;53.084;6.352;2023-02-11T09:23:30;33.58;;;18.60;;
66628;SDS011;53532;53.084;6.352;2023-02-11T09:25:58;35.78;;;19.15;;
66628;SDS011;53532;53.084;6.352;2023-02-11T09:28:24;32.22;;;18.50;;
66628;SDS011;53532;53.084;6.352;2023-02-11T09:30:51;31.08;;;18.05;;
66628;SDS011;53532;53.084;6.352;2023-02-11T09:33:17;33.50;;;17.63;;
66628;SDS011;53532;53.084;6.352;2023-02-11T09:35:43;33.25;;;17.80;;
66628;SDS011;53532;53.084;6.352;2023-02-11T09:38:09;31.98;;;17.30;;
66628;SDS011;53532;53.084;6.352;2023-02-11T09:40:36;28.92;;;17.50;;
66628;SDS011;53532;53.084;6.352;2023-02-11T09:43:07;30.80;;;16.95;;
66628;SDS011;53532;53.084;6.352;2023-02-11T09:45:35;28.60;;;16.67;;
66628;SDS011;53532;53.084;6.352;2023-02-11T09:48:04;30.35;;;16.15;;
66628;SDS011;53532;53.084;6.352;2023-02-11T09:50:35;29.00;;;16.23;;
66628;SDS011;53532;53.084;6.352;2023-02-11T09:53:05;31.98;;;16.23;;
66628;SDS011;53532;53.084;6.352;2023-02-11T09:55:33;34.30;;;16.10;;
66628;SDS011;53532;53.084;6.352;2023-02-11T09:58:06;25.33;;;15.07;;
66628;SDS011;53532;53.084;6.352;2023-02-11T10:00:33;26.80;;;15.27;;
66628;SDS011;53532;53.084;6.352;2023-02-11T10:03:10;27.92;;;14.50;;
66628;SDS011;53532;53.084;6.352;2023-02-11T10:05:47;25.63;;;14.00;;
66628;SDS011;53532;53.084;6.352;2023-02-11T10:08:18;28.08;;;14.80;;
66628;SDS011;53532;53.084;6.352;2023-02-11T10:10:48;25.15;;;14.30;;
66628;SDS011;53532;53.084;6.352;2023-02-11T10:13:30;23.67;;;13.98;;
66628;SDS011;53532;53.084;6.352;2023-02-11T10:15:59;26.35;;;13.48;;
66628;SDS011;53532;53.084;6.352;2023-02-11T10:18:32;27.65;;;13.70;;
66628;SDS011;53532;53.084;6.352;2023-02-11T10:21:06;22.70;;;13.40;;
66628;SDS011;53532;53.084;6.352;2023-02-11T10:23:38;24.65;;;12.00;;
66628;SDS011;53532;53.084;6.352;2023-02-11T10:26:09;23.00;;;12.57;;
66628;SDS011;53532;53.084;6.352;2023-02-11T10:28:38;22.17;;;12.25;;
66628;SDS011;53532;53.084;6.352;2023-02-11T10:31:05;21.80;;;11.80;;
66628;SDS011;53532;53.084;6.352;2023-02-11T10:33:35;21.17;;;11.73;;
66628;SDS011;53532;53.084;6.352;2023-02-11T10:36:01;22.23;;;11.50;;
66628;SDS011;53532;53.084;6.352;2023-02-11T10:38:28;24.02;;;11.75;;
66628;SDS011;53532;53.084;6.352;2023-02-11T10:40:54;21.27;;;11.52;;
66628;SDS011;53532;53.084;6.352;2023-02-11T10:43:22;22.90;;;10.80;;
66628;SDS011;53532;53.084;6.352;2023-02-11T10:45:51;22.35;;;10.90;;
66628;SDS011;53532;53.084;6.352;2023-02-11T10:48:38;21.35;;;10.48;;
66628;SDS011;53532;53.084;6.352;2023-02-11T10:51:06;19.55;;;9.90;;
66628;SDS011;53532;53.084;6.352;2023-02-11T10:53:33;20.10;;;10.00;;
66628;SDS011;53532;53.084;6.352;2023-02-11T10:56:00;21.88;;;9.70;;
66628;SDS011;53532;53.084;6.352;2023-02-11T10:58:28;23.48;;;9.60;;
66628;SDS011;53532;53.084;6.352;2023-02-11T11:00:57;16.55;;;9.20;;
66628;SDS011;53532;53.084;6.352;2023-02-11T11:03:24;20.13;;;8.88;;
66628;SDS011;53532;53.084;6.352;2023-02-11T11:05:52;18.92;;;8.30;;
66628;SDS011;53532;53.084;6.352;2023-02-11T11:08:20;19.05;;;8.48;;
66628;SDS011;53532;53.084;6.352;2023-02-11T11:10:47;19.60;;;7.65;;
66628;SDS011;53532;53.084;6.352;2023-02-11T11:13:27;18.08;;;7.63;;
66628;SDS011;53532;53.084;6.352;2023-02-11T11:16:10;17.38;;;7.07;;
66628;SDS011;53532;53.084;6.352;2023-02-11T11:18:40;19.15;;;7.10;;
66628;SDS011;53532;53.084;6.352;2023-02-11T11:21:11;17.92;;;7.00;;
66628;SDS011;53532;53.084;6.352;2023-02-11T11:23:38;15.73;;;6.78;;
66628;SDS011;53532;53.084;6.352;2023-02-11T11:26:05;19.13;;;7.78;;
66628;SDS011;53532;53.084;6.352;2023-02-11T11:28:33;20.27;;;6.85;;
66628;SDS011;53532;53.084;6.352;2023-02-11T11:31:03;15.40;;;6.45;;
66628;SDS011;53532;53.084;6.352;2023-02-11T11:33:32;16.67;;;6.07;;
66628;SDS011;53532;53.084;6.352;2023-02-11T11:36:00;17.17;;;6.18;;
66628;SDS011;53532;53.084;6.352;2023-02-11T11:38:28;16.85;;;6.45;;
66628;SDS011;53532;53.084;6.352;2023-02-11T11:43:40;16.83;;;6.60;;
66628;SDS011;53532;53.084;6.352;2023-02-11T11:46:21;16.48;;;6.60;;
66628;SDS011;53532;53.084;6.352;2023-02-11T11:48:49;17.33;;;7.10;;
66628;SDS011;53532;53.084;6.352;2023-02-11T11:51:16;20.98;;;6.57;;
66628;SDS011;53532;53.084;6.352;2023-02-11T11:53:44;18.95;;;6.60;;
66628;SDS011;53532;53.084;6.352;2023-02-11T11:56:11;16.75;;;6.25;;
66628;SDS011;53532;53.084;6.352;2023-02-11T11:58:39;16.42;;;5.80;;
66628;SDS011;53532;53.084;6.352;2023-02-11T12:01:09;15.90;;;5.63;;
66628;SDS011;53532;53.084;6.352;2023-02-11T12:03:55;18.50;;;5.90;;
66628;SDS011;53532;53.084;6.352;2023-02-11T12:06:29;13.23;;;5.70;;
66628;SDS011;53532;53.084;6.352;2023-02-11T12:09:01;14.45;;;5.38;;
66628;SDS011;53532;53.084;6.352;2023-02-11T12:11:32;16.65;;;5.82;;
66628;SDS011;53532;53.084;6.352;2023-02-11T12:14:05;16.40;;;5.35;;
66628;SDS011;53532;53.084;6.352;2023-02-11T12:16:35;18.73;;;5.68;;
66628;SDS011;53532;53.084;6.352;2023-02-11T12:21:58;16.25;;;5.10;;
66628;SDS011;53532;53.084;6.352;2023-02-11T12:24:29;16.05;;;4.97;;
66628;SDS011;53532;53.084;6.352;2023-02-11T12:27:03;15.13;;;4.85;;
66628;SDS011;53532;53.084;6.352;2023-02-11T12:29:36;12.88;;;4.93;;
66628;SDS011;53532;53.084;6.352;2023-02-11T12:32:08;13.20;;;4.88;;
66628;SDS011;53532;53.084;6.352;2023-02-11T12:37:23;14.23;;;4.35;;
66628;SDS011;53532;53.084;6.352;2023-02-11T12:39:55;11.88;;;4.00;;
66628;SDS011;53532;53.084;6.352;2023-02-11T12:42:29;16.15;;;4.38;;
66628;SDS011;53532;53.084;6.352;2023-02-11T12:45:20;16.67;;;4.00;;
66628;SDS011;53532;53.084;6.352;2023-02-11T12:47:50;14.43;;;4.35;;
66628;SDS011;53532;53.084;6.352;2023-02-11T12:50:20;15.15;;;5.22;;
66628;SDS011;53532;53.084;6.352;2023-02-11T12:52:55;17.50;;;4.85;;
66628;SDS011;53532;53.084;6.352;2023-02-11T12:55:27;17.92;;;5.10;;
66628;SDS011;53532;53.084;6.352;2023-02-11T12:57:55;16.08;;;4.55;;
66628;SDS011;53532;53.084;6.352;2023-02-11T13:00:27;17.70;;;4.45;;
66628;SDS011;53532;53.084;6.352;2023-02-11T13:02:58;15.65;;;4.13;;
66628;SDS011;53532;53.084;6.352;2023-02-11T13:05:26;15.88;;;4.65;;
66628;SDS011;53532;53.084;6.352;2023-02-11T13:07:53;13.63;;;4.57;;
66628;SDS011;53532;53.084;6.352;2023-02-11T13:10:24;14.85;;;4.53;;
66628;SDS011;53532;53.084;6.352;2023-02-11T13:12:51;17.40;;;4.40;;
66628;SDS011;53532;53.084;6.352;2023-02-11T13:15:38;14.45;;;4.03;;
66628;SDS011;53532;53.084;6.352;2023-02-11T13:18:09;15.52;;;3.85;;
66628;SDS011;53532;53.084;6.352;2023-02-11T13:20:39;17.25;;;4.05;;
66628;SDS011;53532;53.084;6.352;2023-02-11T13:23:12;16.00;;;4.10;;
66628;SDS011;53532;53.084;6.352;2023-02-11T13:25:45;14.02;;;3.83;;
66628;SDS011;53532;53.084;6.352;2023-02-11T13:30:39;14.25;;;4.32;;
66628;SDS011;53532;53.084;6.352;2023-02-11T13:33:18;12.48;;;3.60;;
66628;SDS011;53532;53.084;6.352;2023-02-11T13:35:46;13.02;;;3.70;;
66628;SDS011;53532;53.084;6.352;2023-02-11T13:38:17;15.77;;;3.53;;
66628;SDS011;53532;53.084;6.352;2023-02-11T13:43:32;14.23;;;3.83;;
66628;SDS011;53532;53.084;6.352;2023-02-11T13:46:02;14.40;;;3.28;;
66628;SDS011;53532;53.084;6.352;2023-02-11T13:48:29;13.07;;;3.20;;
66628;SDS011;53532;53.084;6.352;2023-02-11T13:51:01;16.83;;;3.42;;
66628;SDS011;53532;53.084;6.352;2023-02-11T13:53:27;13.20;;;3.80;;
66628;SDS011;53532;53.084;6.352;2023-02-11T13:56:03;13.10;;;3.92;;
66628;SDS011;53532;53.084;6.352;2023-02-11T13:58:37;15.10;;;3.90;;
66628;SDS011;53532;53.084;6.352;2023-02-11T14:01:11;14.00;;;4.15;;
66628;SDS011;53532;53.084;6.352;2023-02-11T14:04:18;17.05;;;4.30;;
66628;SDS011;53532;53.084;6.352;2023-02-11T14:07:23;13.15;;;3.70;;
66628;SDS011;53532;53.084;6.352;2023-02-11T14:13:03;20.58;;;4.70;;
66628;SDS011;53532;53.084;6.352;2023-02-11T14:15:38;13.05;;;3.63;;
66628;SDS011;53532;53.084;6.352;2023-02-11T14:20:45;17.10;;;3.97;;
66628;SDS011;53532;53.084;6.352;2023-02-11T14:23:20;18.85;;;3.85;;
66628;SDS011;53532;53.084;6.352;2023-02-11T14:25:51;16.20;;;4.35;;
66628;SDS011;53532;53.084;6.352;2023-02-11T14:28:21;14.40;;;4.22;;
66628;SDS011;53532;53.084;6.352;2023-02-11T14:30:55;16.55;;;3.95;;
66628;SDS011;53532;53.084;6.352;2023-02-11T14:36:07;14.75;;;3.65;;
66628;SDS011;53532;53.084;6.352;2023-02-11T14:38:40;13.57;;;4.10;;
66628;SDS011;53532;53.084;6.352;2023-02-11T14:41:09;12.57;;;3.53;;
66628;SDS011;53532;53.084;6.352;2023-02-11T14:43:37;13.98;;;3.70;;
66628;SDS011;53532;53.084;6.352;2023-02-11T14:46:06;16.20;;;3.85;;
66628;SDS011;53532;53.084;6.352;2023-02-11T14:48:34;13.27;;;3.50;;
66628;SDS011;53532;53.084;6.352;2023-02-11T14:51:02;14.43;;;3.95;;
66628;SDS011;53532;53.084;6.352;2023-02-11T14:53:29;13.75;;;3.90;;
66628;SDS011;53532;53.084;6.352;2023-02-11T14:55:56;16.35;;;3.67;;
66628;SDS011;53532;53.084;6.352;2023-02-11T14:58:23;13.13;;;4.40;;
66628;SDS011;53532;53.084;6.352;2023-02-11T15:00:54;17.55;;;5.00;;
66628;SDS011;53532;53.084;6.352;2023-02-11T15:03:29;16.70;;;3.57;;
66628;SDS011;53532;53.084;6.352;2023-02-11T15:05:56;15.90;;;4.05;;
66628;SDS011;53532;53.084;6.352;2023-02-11T15:08:23;13.85;;;4.45;;
66628;SDS011;53532;53.084;6.352;2023-02-11T15:10:50;14.65;;;5.18;;